• Join FlightAware (Why Join?)
  • Login
  • US Flag 
08:24PM EST


 

Airport Tracker/Info


-or-


 

Live Flight TrackerFlight Track Log ✈ SKW5162 ✈ 25-May-2013 ✈ KIAH - KPIT

Flight Track Log - Related Links

Times and Time Zones

All times are in EDT time to prevent confusion due to time zone crossing. See the SKW5162 flight status page for this flight to view local times or setup timezone preferences in your user account.

Time Position Orientation Groundspeed Altitude Reporting Facility
EDT Latitude Longitude Course Direction KTS MPH feet Rate Location/Type
08:26PM 29.9639 -95.3433 90° East 161 185 600  Level Houston Center
08:27PM 29.9586 -95.2644 94° East 238 274 2,700 1,800 Climbing Houston Center
08:28PM 29.9597 -95.2231 88° East 233 268 4,000 1,440 Climbing Houston Center
08:28PM 29.9608 -95.1967 87° East 261 300 3,900 1,440 Descending Houston Center
08:29PM 29.9834 -94.7670 90° East  Level FlightAware Approximate
08:29PM 29.9642 -95.1378 86° East 261 300 5,500  Level Houston Center
08:30PM 29.9833 -94.6254 90° East  Level FlightAware Approximate
08:30PM 29.9678 -95.0508 87° East 270 311 8,300  Level Houston Center
08:31PM 29.9834 -94.4838 90° East  Level FlightAware Approximate
08:31PM 29.9706 -94.9597 88° East 281 323 10,500  Level Houston Center
08:32PM 29.9750 -94.8514 87° East 332 382 11,900 1,620 Climbing Houston Center
08:33PM 29.9792 -94.7361 88° East 354 407 13,800 1,860 Climbing Houston Center
08:34PM 29.9844 -94.6144 87° East 369 425 15,700 1,800 Climbing Houston Center
08:35PM 29.9892 -94.4906 87° East 382 440 17,500 1,560 Climbing Houston Center
08:36PM 29.9925 -94.3664 88° East 389 448 19,000 1,440 Climbing Houston Center
08:37PM 30.0039 -94.2367 84° East 404 465 20,500 1,560 Climbing Houston Center
08:38PM 30.0239 -94.0794 82° East 413 475 22,200 1,380 Climbing Houston Center
08:39PM 30.0400 -93.9444 82° East 424 488 23,400 1,020 Climbing Houston Center
08:40PM 30.0569 -93.8067 82° East 434 499 24,300 1,020 Climbing Houston Center
08:41PM 30.0736 -93.6667 82° East 443 510 25,500 1,440 Climbing Houston Center
08:42PM 30.0889 -93.5258 83° East 447 514 27,300 1,560 Climbing Houston Center
08:43PM 30.1047 -93.3886 82° East 440 506 28,700 1,140 Climbing Houston Center
08:44PM 30.1217 -93.2517 82° East 437 503 29,700 1,080 Climbing Houston Center
08:45PM 30.1517 -93.0864 78° East 443 510 31,000 1,200 Climbing Houston Center
08:46PM 30.2236 -92.9711 54° Northeast 444 511 32,200 840 Climbing Houston Center
08:47PM 30.2956 -92.8539 55° Northeast 448 516 32,800 720 Climbing Houston Center
08:48PM 30.3661 -92.7353 55° Northeast 449 517 33,700 780 Climbing Houston Center
08:49PM 30.4372 -92.6175 55° Northeast 449 517 34,500 600 Climbing Houston Center
08:50PM 30.5086 -92.4994 55° Northeast 453 521 35,000 240 Climbing Houston Center
08:51PM 30.5836 -92.3767 55° Northeast 462 532 35,000  Level Houston Center
08:52PM 30.6794 -92.2169 55° Northeast 500 575 35,000  Level Houston Center
08:53PM 30.7578 -92.0872 55° Northeast 495 570 35,000  Level Houston Center
08:54PM 30.8344 -91.9594 55° Northeast 489 563 35,000  Level Houston Center
08:55PM 30.9111 -91.8319 55° Northeast 485 558 35,000 180 Level Houston Center
08:56PM 30.9878 -91.7036 55° Northeast 484 557 35,400 900 Climbing Houston Center
08:57PM 31.0622 -91.5800 55° Northeast 474 545 36,900 780 Climbing Houston Center
08:58PM 31.1339 -91.4586 55° Northeast 459 528 37,000  Climbing Houston Center
08:59PM 31.2189 -91.3125 56° Northeast 473 544 37,000  Level Houston Center
09:00PM 31.2994 -91.1756 55° Northeast 484 557 37,000  Level Houston Center
09:01PM 31.3744 -91.0481 55° Northeast 495 570 37,000  Level Houston Center
09:02PM 31.4519 -90.9147 56° Northeast 495 570 37,000 -60 Level Houston Center
09:03PM 31.5322 -90.7772 56° Northeast 507 583 36,900 240 Descending Houston Center
09:04PM 31.6117 -90.6394 56° Northeast 509 586 37,600 1,020 Climbing Houston Center
09:05PM 31.6889 -90.5061 56° Northeast 496 571 39,000 660 Climbing Houston Center
09:06PM 31.7639 -90.3764 56° Northeast 482 555 39,000  Level Houston Center
09:07PM 31.8394 -90.2433 56° Northeast 489 563 39,000  Level Houston Center
09:08PM 31.9183 -90.1067 56° Northeast 494 568 39,000  Level Houston Center
09:09PM 31.9678 -90.0169 57° Northeast 488 562 39,000  Level Memphis Center
09:10PM 32.0425 -89.8844 56° Northeast 488 562 39,000  Level Memphis Center
09:11PM 32.1192 -89.7489 56° Northeast 488 562 39,000  Level Memphis Center
09:12PM 32.1936 -89.6158 57° Northeast 488 562 39,000  Level Memphis Center
09:13PM 32.2700 -89.4825 56° Northeast 488 562 39,000  Level Memphis Center
09:14PM 32.3442 -89.3467 57° Northeast 488 562 39,000  Level Memphis Center
09:15PM 32.4264 -89.2006 56° Northeast 488 562 39,000  Level Memphis Center
09:16PM 32.5003 -89.0714 56° Northeast 488 562 39,000  Level Memphis Center
09:17PM 32.5739 -88.9372 57° Northeast 488 562 39,000  Level Memphis Center
09:18PM 32.6456 -88.8078 57° Northeast 488 562 39,000  Level Memphis Center
09:19PM 32.7189 -88.6783 56° Northeast 488 562 39,000  Level Memphis Center
09:20PM 32.7903 -88.5483 57° Northeast 483 556 39,000  Level Memphis Center
09:22PM 32.9233 -88.3000 57° Northeast 496 571 39,000  Level Atlanta Center
09:23PM 32.9925 -88.1672 58° Northeast 485 558 39,000  Level Atlanta Center
09:24PM 33.0636 -88.0369 57° Northeast 473 544 39,000  Level Atlanta Center
09:25PM 33.1325 -87.9061 58° Northeast 466 536 39,000  Level Atlanta Center
09:26PM 33.2033 -87.7750 57° Northeast 466 536 39,000  Level Atlanta Center
09:27PM 33.2739 -87.6439 57° Northeast 466 536 39,000  Level Atlanta Center
09:28PM 33.3444 -87.5128 57° Northeast 466 536 39,000  Level Atlanta Center
09:29PM 33.4150 -87.3761 58° Northeast 466 536 39,000  Level Atlanta Center
09:30PM 33.4853 -87.2444 57° Northeast 466 536 39,000  Level Atlanta Center
09:31PM 33.5556 -87.1147 57° Northeast 466 536 39,000  Level Atlanta Center
09:32PM 33.6256 -86.9778 58° Northeast 466 536 39,000  Level Atlanta Center
09:33PM 33.7058 -86.8556 52° Northeast 466 536 39,000  Level Atlanta Center
09:34PM 33.8039 -86.7589 39° Northeast 452 520 39,000  Level Atlanta Center
09:35PM 33.9019 -86.6617 39° Northeast 447 514 39,000  Level Atlanta Center
09:36PM 34.0003 -86.5594 41° Northeast 452 520 39,000  Level Atlanta Center
09:37PM 34.0961 -86.4569 42° Northeast 457 526 39,000  Level Atlanta Center
09:38PM 34.1961 -86.3594 39° Northeast 457 526 39,000  Level Atlanta Center
09:39PM 34.2939 -86.2589 40° Northeast 462 532 39,000  Level Atlanta Center
09:40PM 34.3917 -86.1583 40° Northeast 462 532 39,000  Level Atlanta Center
09:41PM 34.4914 -86.0575 40° Northeast 462 532 39,000  Level Atlanta Center
09:42PM 34.5892 -85.9564 40° Northeast 462 532 39,000  Level Atlanta Center
09:43PM 34.6867 -85.8550 41° Northeast 462 532 39,000  Level Atlanta Center
09:44PM 34.7906 -85.7461 41° Northeast 462 532 39,000  Level Atlanta Center
09:45PM 34.8900 -85.6417 41° Northeast 457 526 39,000  Level Atlanta Center
09:46PM 34.9872 -85.5397 41° Northeast 462 532 39,000  Level Atlanta Center
09:47PM 35.0867 -85.4347 41° Northeast 462 532 39,000  Level Atlanta Center
09:48PM 35.1836 -85.3297 42° Northeast 462 532 39,000  Level Atlanta Center
09:49PM 35.2828 -85.2244 41° Northeast 462 532 39,000  Level Atlanta Center
09:50PM 35.3797 -85.1189 42° Northeast 462 532 39,000  Level Atlanta Center
09:51PM 35.4808 -85.0131 40° Northeast 462 532 39,000  Level Atlanta Center
09:52PM 35.5756 -84.9094 42° Northeast 462 532 39,000  Level Atlanta Center
09:53PM 35.6722 -84.8031 42° Northeast 462 532 39,000  Level Atlanta Center
09:54PM 35.7625 -84.7042 42° Northeast 470 541 39,000  Level Atlanta Center
09:56PM 35.9589 -84.4936 41° Northeast 466 536 39,000 -120 Level Indianapolis Center
09:57PM 36.0539 -84.3900 41° Northeast 460 529 38,800 -600 Descending Indianapolis Center
09:58PM 36.1486 -84.2844 42° Northeast 460 529 37,800 -900 Descending Indianapolis Center
09:59PM 36.2469 -84.1775 41° Northeast 469 540 37,000 -420 Descending Indianapolis Center
10:00PM 36.3469 -84.0681 41° Northeast 477 549 37,000  Level Indianapolis Center
10:01PM 36.4461 -83.9569 42° Northeast 482 555 37,000  Level Indianapolis Center
10:02PM 36.5475 -83.8444 42° Northeast 479 551 37,000  Level Indianapolis Center
10:03PM 36.6556 -83.7492 35° Northeast 470 541 37,000 -600 Level Indianapolis Center
10:04PM 36.7633 -83.6583 34° Northeast 467 537 35,800 -1,020 Descending Indianapolis Center
10:05PM 36.8717 -83.5700 33° Northeast 463 533 35,000 -420 Descending Indianapolis Center
10:06PM 36.9786 -83.4811 34° Northeast 460 529 35,000  Level Indianapolis Center
10:07PM 37.0847 -83.3914 34° Northeast 457 526 35,000  Level Indianapolis Center
10:08PM 37.1911 -83.3019 34° Northeast 454 522 35,000  Level Indianapolis Center
10:09PM 37.2967 -83.2144 33° Northeast 450 518 35,000  Level Indianapolis Center
10:10PM 37.4000 -83.1269 34° Northeast 445 512 35,000  Level Indianapolis Center
10:11PM 37.5019 -83.0403 34° Northeast 441 507 35,000  Level Indianapolis Center
10:12PM 37.6044 -82.9522 34° Northeast 443 510 35,000  Level Indianapolis Center
10:13PM 37.7075 -82.8633 34° Northeast 444 511 35,000  Level Indianapolis Center
10:14PM 37.8119 -82.7758 33° Northeast 448 516 35,000  Level Indianapolis Center
10:15PM 37.9167 -82.6856 34° Northeast 453 521 35,000 -180 Level Indianapolis Center
10:16PM 38.0225 -82.5947 34° Northeast 457 526 34,700 -720 Descending Indianapolis Center
10:17PM 38.1269 -82.5036 34° Northeast 453 521 33,600 -1,020 Descending Indianapolis Center
10:18PM 38.2169 -82.4236 35° Northeast 448 516 32,700 -960 Descending Indianapolis Center
10:19PM 38.3181 -82.3386 33° Northeast 438 504 31,700 -1,020 Descending Indianapolis Center
10:20PM 38.4175 -82.2525 34° Northeast 432 497 30,700 -1,020 Descending Indianapolis Center
10:21PM 38.5186 -82.1631 35° Northeast 437 503 29,700 -1,020 Descending Indianapolis Center
10:22PM 38.6231 -82.0722 34° Northeast 448 516 28,700 -1,020 Descending Indianapolis Center
10:23PM 38.7294 -81.9792 34° Northeast 457 526 27,700 -900 Descending Indianapolis Center
10:24PM 38.8353 -81.8844 35° Northeast 456 525 27,000 -360 Descending Indianapolis Center
10:25PM 38.9411 -81.7911 34° Northeast 455 524 27,000  Level Indianapolis Center
10:26PM 39.0469 -81.6978 34° Northeast 455 524 27,000 -60 Level Indianapolis Center
10:27PM 39.1514 -81.6033 35° Northeast 455 524 26,900 -60 Descending Indianapolis Center
10:28PM 39.2561 -81.5083 35° Northeast 457 526 26,900  Level Indianapolis Center
10:29PM 39.3608 -81.4133 35° Northeast 458 527 27,000 -1,740 Climbing Indianapolis Center
10:30PM 39.4622 -81.3231 34° Northeast 444 511 23,500 -3,000 Descending Indianapolis Center
10:31PM 39.5589 -81.2353 35° Northeast 428 493 21,000 -1,500 Descending Indianapolis Center
10:32PM 39.6436 -81.1592 35° Northeast 373 429 20,500 -600 Descending Indianapolis Center
10:33PM 39.7283 -81.0806 36° Northeast 373 429 19,900 -840 Descending Indianapolis Center
10:34PM 39.8172 -80.9986 35° Northeast 388 447 18,900 -1,680 Descending Indianapolis Center
10:35PM 39.9081 -80.9150 35° Northeast 397 457 16,600 -2,520 Descending Indianapolis Center
10:36PM 39.9878 -80.8406 36° Northeast 380 437 14,300 -2,760 Descending Cleveland Center
10:37PM 40.0483 -80.7269 55° Northeast 369 425 11,600 -2,160 Descending Cleveland Center
10:38PM 40.1047 -80.6183 56° Northeast 369 425 10,000 -840 Descending Cleveland Center
10:39PM 40.1567 -80.5342 51° Northeast 338 389 10,000  Level Cleveland Center
10:40PM 40.2067 -80.4553 50° Northeast 299 344 10,000 -240 Level Cleveland Center
10:41PM 40.2547 -80.3764 51° Northeast 275 316 9,600 -1,080 Descending Cleveland Center
10:42PM 40.3044 -80.3000 50° Northeast 252 290 7,900 -1,800 Descending Cleveland Center
10:43PM 40.3481 -80.2261 52° Northeast 245 282 6,100 -1,500 Descending Cleveland Center
10:44PM 40.3853 -80.1714 48° Northeast 240 276 4,900 -1,200 Descending Cleveland Center